| time (UTC) | temp C | wind direction | speed KPH | gust KPH | rain 1hr cm | rain 24hr cm | rain mn cm | humidity % | barometer mb |
| 20260508063019 | 15 | 174 | 8.0 | 17.7 | 0.00 | 0.00 | 0.00 | 81 | 1016.8 |
| 20260508062029 | 14 | 179 | 6.4 | 14.5 | 0.00 | 0.00 | 0.00 | 81 | 1016.6 |
| 20260508061029 | 14 | 174 | 8.0 | 16.1 | 0.00 | 0.00 | 0.00 | 82 | 1016.5 |
| 20260508060017 | 14 | 173 | 8.0 | 17.7 | 0.00 | 0.00 | 0.00 | 83 | 1016.5 |
| 20260508055022 | 14 | 185 | 6.4 | 14.5 | 0.00 | 0.00 | 0.00 | 84 | 1016.6 |
| 20260508054028 | 13 | 181 | 11.3 | 17.7 | 0.00 | 0.00 | 0.00 | 83 | 1016.4 |
| 20260508053031 | 14 | 164 | 9.7 | 22.5 | 0.00 | 0.00 | 0.00 | 82 | 1016.4 |
| 20260508052020 | 13 | 172 | 9.7 | 20.9 | 0.00 | 0.00 | 0.00 | 82 | 1016.4 |
| 20260508051024 | 13 | 161 | 8.0 | 16.1 | 0.00 | 0.00 | 0.00 | 84 | 1016.3 |
| 20260508050029 | 12 | 176 | 8.0 | 16.1 | 0.00 | 0.00 | 0.00 | 87 | 1016.2 |
| 20260508045058 | 12 | 175 | 6.4 | 12.9 | 0.00 | 0.00 | 0.00 | 87 | 1016.2 |
| 20260508032028 | 10 | 164 | 6.4 | 11.3 | 0.00 | 0.00 | 0.00 | 92 | 1015.9 |
| 20260508031016 | 10 | 156 | 4.8 | 12.9 | 0.00 | 0.00 | 0.00 | 92 | 1015.7 |
| 20260508030021 | 10 | 163 | 4.8 | 11.3 | 0.00 | 0.00 | 0.00 | 92 | 1015.6 |
| 20260508025026 | 10 | 160 | 4.8 | 12.9 | 0.00 | 0.00 | 0.00 | 92 | 1015.7 |
| 20260508024033 | 10 | 169 | 6.4 | 16.1 | 0.00 | 0.00 | 0.00 | 92 | 1015.7 |
| 20260508015022 | 10 | 185 | 4.8 | 9.7 | 0.00 | 0.00 | 0.00 | 92 | 1015.9 |
| 20260508014027 | 10 | 185 | 3.2 | 11.3 | 0.00 | 0.00 | 0.00 | 92 | 1015.9 |
| 20260508013037 | 10 | 183 | 4.8 | 9.7 | 0.00 | 0.00 | 0.00 | 93 | 1015.9 |
| 20260508012020 | 10 | 177 | 6.4 | 12.9 | 0.00 | 0.00 | 0.00 | 93 | 1015.9 |
| 20260508011025 | 10 | 161 | 8.0 | 12.9 | 0.00 | 0.00 | 0.00 | 93 | 1015.8 |
| 20260508010030 | 10 | 161 | 6.4 | 11.3 | 0.00 | 0.00 | 0.00 | 94 | 1015.8 |
| 20260508005017 | 10 | 172 | 6.4 | 12.9 | 0.00 | 0.00 | 0.00 | 94 | 1015.9 |
| 20260508004023 | 10 | 173 | 8.0 | 14.5 | 0.00 | 0.00 | 0.00 | 94 | 1015.9 |
| 20260508003027 | 10 | 165 | 9.7 | 16.1 | 0.00 | 0.00 | 0.00 | 94 | 1016.0 |
| 20260508002032 | 10 | 165 | 8.0 | 12.9 | 0.00 | 0.00 | 0.00 | 93 | 1015.7 |
| 20260508001021 | 10 | 167 | 6.4 | 16.1 | 0.00 | 0.00 | 0.00 | 93 | 1015.9 |
| 20260508000026 | 10 | 155 | 6.4 | 12.9 | 0.00 | 0.00 | 0.00 | 93 | 1015.9 |
| 20260507235030 | 10 | 162 | 8.0 | 16.1 | 0.00 | 0.00 | 0.00 | 93 | 1015.7 |
| 20260507234018 | 10 | 159 | 8.0 | 17.7 | 0.00 | 0.00 | 0.00 | 93 | 1015.8 |
| 20260507233025 | 10 | 148 | 8.0 | 16.1 | 0.00 | 0.00 | 0.00 | 93 | 1016.0 |
| 20260507232028 | 10 | 162 | 8.0 | 20.9 | 0.00 | 0.00 | 0.00 | 93 | 1016.3 |
| 20260507231016 | 10 | 158 | 6.4 | 12.9 | 0.00 | 0.00 | 0.00 | 93 | 1016.1 |
| 20260507230021 | 10 | 153 | 8.0 | 14.5 | 0.00 | 0.00 | 0.00 | 93 | 1016.4 |
| 20260507225026 | 10 | 160 | 6.4 | 14.5 | 0.00 | 0.00 | 0.00 | 93 | 1016.6 |
| 20260507224031 | 10 | 159 | 6.4 | 12.9 | 0.00 | 0.00 | 0.00 | 92 | 1016.6 |
| 20260507223019 | 10 | 152 | 6.4 | 11.3 | 0.00 | 0.00 | 0.00 | 92 | 1016.7 |
| 20260507222025 | 10 | 157 | 6.4 | 12.9 | 0.00 | 0.00 | 0.00 | 92 | 1016.7 |
| 20260507221029 | 10 | 156 | 6.4 | 11.3 | 0.00 | 0.00 | 0.00 | 92 | 1016.9 |
| 20260507220017 | 10 | 149 | 6.4 | 16.1 | 0.00 | 0.00 | 0.00 | 92 | 1016.9 |
| 20260507215022 | 10 | 163 | 8.0 | 14.5 | 0.00 | 0.00 | 0.00 | 92 | 1016.8 |
| 20260507214027 | 10 | 145 | 8.0 | 17.7 | 0.00 | 0.00 | 0.00 | 92 | 1016.8 |
| 20260507213032 | 10 | 149 | 9.7 | 16.1 | 0.00 | 0.00 | 0.00 | 92 | 1016.9 |
| 20260507212020 | 10 | 160 | 6.4 | 11.3 | 0.00 | 0.00 | 0.00 | 92 | 1016.8 |
| 20260507211025 | 10 | 154 | 8.0 | 12.9 | 0.00 | 0.00 | 0.00 | 92 | 1016.8 |
| 20260507210031 | 10 | 151 | 8.0 | 14.5 | 0.00 | 0.00 | 0.00 | 92 | 1016.8 |
| 20260507205021 | 10 | 147 | 8.0 | 12.9 | 0.00 | 0.00 | 0.00 | 92 | 1016.8 |
| 20260507204023 | 10 | 150 | 8.0 | 12.9 | 0.00 | 0.00 | 0.00 | 91 | 1016.8 |
| 20260507203028 | 10 | 156 | 8.0 | 14.5 | 0.00 | 0.00 | 0.00 | 91 | 1016.7 |
| 20260507202017 | 10 | 147 | 8.0 | 16.1 | 0.00 | 0.00 | 0.00 | 91 | 1016.7 |
| 20260507201021 | 10 | 151 | 9.7 | 14.5 | 0.00 | 0.00 | 0.00 | 91 | 1016.7 |
| 20260507200027 | 10 | 147 | 8.0 | 16.1 | 0.00 | 0.00 | 0.00 | 91 | 1016.7 |
| 20260507195031 | 10 | 153 | 8.0 | 17.7 | 0.00 | 0.00 | 0.00 | 91 | 1016.7 |
| 20260507194018 | 10 | 154 | 9.7 | 17.7 | 0.00 | 0.00 | 0.00 | 91 | 1016.8 |
| 20260507193025 | 10 | 150 | 9.7 | 17.7 | 0.00 | 0.00 | 0.00 | 90 | 1016.8 |
| 20260507192028 | 10 | 154 | 9.7 | 16.1 | 0.00 | 0.00 | 0.00 | 90 | 1016.8 |
| 20260507191018 | 10 | 160 | 9.7 | 22.5 | 0.00 | 0.00 | 0.00 | 90 | 1016.8 |
| 20260507190021 | 10 | 154 | 11.3 | 22.5 | 0.00 | 0.00 | 0.00 | 89 | 1016.8 |
| 20260507185026 | 10 | 152 | 9.7 | 20.9 | 0.00 | 0.00 | 0.00 | 89 | 1016.7 |
| 20260507184031 | 10 | 158 | 8.0 | 17.7 | 0.00 | 0.00 | 0.00 | 88 | 1016.6 |
| 20260507183019 | 10 | 147 | 11.3 | 22.5 | 0.00 | 0.00 | 0.00 | 88 | 1016.4 |
| 20260507182024 | 10 | 154 | 11.3 | 22.5 | 0.00 | 0.00 | 0.00 | 88 | 1016.4 |
| 20260507181029 | 11 | 148 | 11.3 | 20.9 | 0.00 | 0.00 | 0.00 | 88 | 1016.4 |
| 20260507180017 | 11 | 147 | 11.3 | 25.7 | 0.00 | 0.00 | 0.00 | 87 | 1016.3 |
| 20260507175022 | 11 | 140 | 14.5 | 25.7 | 0.00 | 0.00 | 0.00 | 86 | 1016.2 |
| 20260507174027 | 11 | 145 | 12.9 | 22.5 | 0.00 | 0.00 | 0.00 | 86 | 1016.3 |
| 20260507173032 | 11 | 161 | 12.9 | 22.5 | 0.00 | 0.00 | 0.00 | 84 | 1016.1 |
| 20260507172020 | 11 | 153 | 11.3 | 22.5 | 0.00 | 0.00 | 0.00 | 83 | 1016.1 |
| 20260507171025 | 12 | 149 | 14.5 | 24.1 | 0.00 | 0.00 | 0.00 | 82 | 1016.2 |
| 20260507170030 | 12 | 150 | 12.9 | 25.7 | 0.00 | 0.00 | 0.00 | 80 | 1016.4 |
| 20260507165018 | 12 | 156 | 14.5 | 29.0 | 0.00 | 0.00 | 0.00 | 79 | 1016.4 |
| 20260507164023 | 12 | 148 | 9.7 | 17.7 | 0.00 | 0.00 | 0.00 | 78 | 1016.4 |
| 20260507163028 | 13 | 147 | 12.9 | 27.4 | 0.00 | 0.00 | 0.00 | 77 | 1016.3 |
| 20260507162033 | 13 | 135 | 17.7 | 30.6 | 0.00 | 0.00 | 0.00 | 75 | 1016.4 |
| 20260507161022 | 14 | 147 | 14.5 | 27.4 | 0.00 | 0.00 | 0.00 | 71 | 1016.4 |
| 20260507160026 | 15 | 144 | 16.1 | 27.4 | 0.00 | 0.00 | 0.00 | 69 | 1016.3 |
| 20260507155031 | 15 | 153 | 14.5 | 33.8 | 0.00 | 0.00 | 0.00 | 68 | 1016.4 |
| 20260507154019 | 15 | 156 | 12.9 | 24.1 | 0.00 | 0.00 | 0.00 | 67 | 1016.2 |
| 20260507153024 | 15 | 155 | 12.9 | 24.1 | 0.00 | 0.00 | 0.00 | 66 | 1016.3 |
| 20260507152030 | 16 | 145 | 14.5 | 25.7 | 0.00 | 0.00 | 0.00 | 63 | 1016.4 |
| 20260507151018 | 17 | 137 | 14.5 | 27.4 | 0.00 | 0.00 | 0.00 | 60 | 1016.5 |
| 20260507150022 | 18 | 127 | 14.5 | 29.0 | 0.00 | 0.00 | 0.00 | 60 | 1016.5 |
| 20260507145028 | 18 | 150 | 16.1 | 30.6 | 0.00 | 0.00 | 0.00 | 59 | 1016.5 |
| 20260507144032 | 18 | 128 | 16.1 | 29.0 | 0.00 | 0.00 | 0.00 | 59 | 1016.7 |
| 20260507143019 | 19 | 146 | 14.5 | 27.4 | 0.00 | 0.00 | 0.00 | 58 | 1016.8 |
| 20260507142025 | 18 | 168 | 12.9 | 27.4 | 0.00 | 0.00 | 0.00 | 61 | 1016.8 |
| 20260507141029 | 18 | 170 | 12.9 | 24.1 | 0.00 | 0.00 | 0.00 | 61 | 1016.7 |
| 20260507140017 | 17 | 151 | 14.5 | 29.0 | 0.00 | 0.00 | 0.00 | 62 | 1016.8 |
| 20260507135024 | 18 | 154 | 11.3 | 22.5 | 0.00 | 0.00 | 0.00 | 61 | 1016.8 |
| 20260507134027 | 18 | 168 | 11.3 | 24.1 | 0.00 | 0.00 | 0.00 | 60 | 1016.9 |
| 20260507133032 | 18 | 155 | 12.9 | 29.0 | 0.00 | 0.00 | 0.00 | 60 | 1016.8 |
| 20260507132020 | 18 | 151 | 12.9 | 25.7 | 0.00 | 0.00 | 0.00 | 61 | 1017.0 |
| 20260507131025 | 18 | 144 | 12.9 | 24.1 | 0.00 | 0.00 | 0.00 | 62 | 1016.9 |
| 20260507130030 | 18 | 146 | 12.9 | 27.4 | 0.00 | 0.00 | 0.00 | 62 | 1016.9 |
| 20260507125018 | 18 | 159 | 12.9 | 25.7 | 0.00 | 0.00 | 0.00 | 62 | 1017.0 |
| 20260507124023 | 18 | 156 | 12.9 | 30.6 | 0.00 | 0.00 | 0.00 | 61 | 1017.0 |
| 20260507123028 | 18 | 161 | 14.5 | 30.6 | 0.00 | 0.00 | 0.00 | 60 | 1017.1 |
| 20260507122017 | 18 | 161 | 14.5 | 27.4 | 0.00 | 0.00 | 0.00 | 61 | 1017.3 |
| 20260507121021 | 18 | 143 | 16.1 | 29.0 | 0.00 | 0.00 | 0.00 | 63 | 1017.4 |
| 20260507120026 | 18 | 162 | 16.1 | 30.6 | 0.00 | 0.00 | 0.00 | 62 | 1017.3 |
| 20260507115033 | 18 | 154 | 16.1 | 30.6 | 0.00 | 0.00 | 0.00 | 62 | 1017.4 |
| 20260507114021 | 18 | 149 | 17.7 | 29.0 | 0.00 | 0.00 | 0.00 | 62 | 1017.4 |
| 20260507113024 | 18 | 149 | 14.5 | 27.4 | 0.00 | 0.00 | 0.00 | 63 | 1017.4 |
| 20260507112029 | 18 | 143 | 16.1 | 33.8 | 0.00 | 0.00 | 0.00 | 62 | 1017.3 |
| 20260507111017 | 18 | 142 | 14.5 | 29.0 | 0.00 | 0.00 | 0.00 | 61 | 1017.3 |
| 20260507110022 | 18 | 164 | 16.1 | 25.7 | 0.00 | 0.00 | 0.00 | 60 | 1017.2 |
| 20260507105027 | 18 | 143 | 14.5 | 27.4 | 0.00 | 0.00 | 0.00 | 60 | 1017.3 |
| 20260507104033 | 18 | 162 | 14.5 | 30.6 | 0.00 | 0.00 | 0.00 | 59 | 1017.3 |
| 20260507103020 | 18 | 164 | 16.1 | 29.0 | 0.00 | 0.00 | 0.00 | 60 | 1017.4 |
| 20260507102025 | 18 | 151 | 16.1 | 29.0 | 0.00 | 0.00 | 0.00 | 61 | 1017.6 |
| 20260507101030 | 18 | 154 | 14.5 | 30.6 | 0.00 | 0.00 | 0.00 | 61 | 1017.3 |
| 20260507100018 | 18 | 156 | 12.9 | 29.0 | 0.00 | 0.00 | 0.00 | 60 | 1017.3 |
| 20260507095024 | 17 | 166 | 14.5 | 27.4 | 0.00 | 0.00 | 0.00 | 62 | 1017.4 |
| 20260507094028 | 18 | 170 | 14.5 | 29.0 | 0.00 | 0.00 | 0.00 | 60 | 1017.4 |
| 20260507093033 | 18 | 142 | 16.1 | 35.4 | 0.00 | 0.00 | 0.00 | 61 | 1017.3 |
| 20260507092021 | 18 | 163 | 14.5 | 24.1 | 0.00 | 0.00 | 0.00 | 60 | 1017.3 |
| 20260507091028 | 18 | 164 | 16.1 | 27.4 | 0.00 | 0.00 | 0.00 | 60 | 1017.3 |
| 20260507090032 | 18 | 151 | 16.1 | 27.4 | 0.00 | 0.00 | 0.00 | 61 | 1017.4 |
| 20260507085019 | 17 | 153 | 12.9 | 20.9 | 0.00 | 0.00 | 0.00 | 63 | 1017.4 |
| 20260507084024 | 17 | 137 | 14.5 | 27.4 | 0.00 | 0.00 | 0.00 | 62 | 1017.4 |
| 20260507083029 | 17 | 167 | 11.3 | 24.1 | 0.00 | 0.00 | 0.00 | 62 | 1017.3 |
| 20260507082016 | 17 | 166 | 11.3 | 25.7 | 0.00 | 0.00 | 0.00 | 62 | 1017.3 |
| 20260507081022 | 17 | 151 | 12.9 | 24.1 | 0.00 | 0.00 | 0.00 | 61 | 1017.3 |
| 20260507080026 | 17 | 164 | 12.9 | 27.4 | 0.00 | 0.00 | 0.00 | 61 | 1017.1 |
| 20260507075031 | 17 | 147 | 14.5 | 25.7 | 0.00 | 0.00 | 0.00 | 63 | 1017.3 |
| 20260507074019 | 16 | 157 | 14.5 | 25.7 | 0.00 | 0.00 | 0.00 | 62 | 1017.4 |
| 20260507073024 | 16 | 162 | 12.9 | 25.7 | 0.00 | 0.00 | 0.00 | 63 | 1017.4 |
| 20260507072029 | 16 | 167 | 14.5 | 25.7 | 0.00 | 0.00 | 0.00 | 65 | 1017.3 |
| 20260507071017 | 16 | 157 | 14.5 | 25.7 | 0.00 | 0.00 | 0.00 | 65 | 1017.5 |
| 20260507070022 | 16 | 136 | 16.1 | 29.0 | 0.00 | 0.00 | 0.00 | 68 | 1017.4 |
| 20260507065027 | 15 | 168 | 14.5 | 33.8 | 0.00 | 0.00 | 0.00 | 69 | 1017.6 |
| 20260507064024 | 15 | 159 | 12.9 | 22.5 | 0.00 | 0.00 | 0.00 | 69 | 1017.6 |